A- A+ FrançaisEnglishEspañol中国

Services sur Internet Soldes sur Internet Des idées de cadeaux Météo Météo aéro

La météo à : Autours de vous Tarbes-Lourdes-PyrénéesCalais-DunkerqueSt-Etienne Boutheon Dinard-Pleurtuit-St-Malo

manche à air

La météo aéronautique pour les pilotes, la préparation du vol avec les METAR (METeorological Aerodrome Report, message d'observation des conditions météorologiques pour l'aviation) et Les TAF (Terminal Aerodrome Forecast : message de prévision à court terme des conditions météorologiques pour l'aviation). Et les autres ressources comme les VAC (Visual Approch Chart) et les NOTAM (Notice To Airman) pour préprer les vols.

Aéroport Quebec Jean Lesage Intl (Canada) / OACI CYQB/ IATA YQB

L'altitude de l'aéroport Quebec Jean Lesage Intl est de 74 m = 243 ft. Il est situé à proximité de Quebec (Canada). La météo générale à 5 jours est disponible pour LAncienne-Lorette situé à 3.2 km.

METAR de l'aéroport Quebec Jean Lesage Intl - CYQB

CYQB 102300Z 26018G24KT 15SM FEW018 SCT042 BKN250 00/M07 A2974 RMK SC1SC2CS4 HALO PRESRR SLP075

Décodage du METAR de l'aéroport Quebec Jean Lesage Intl (CA)

METAR émis par CYQB le mercredi 11 décembre 2019 à 23:00 heure TU. Attention ce METAR est obsolète car il a été émis il y a 21 heure et 55 minutes.

La visibilité est de 24.1 km = 15 sm.

La température est de 0°C = 32 °F et le point rosée est de -7°C = 19 °F . Ce qui correspond à 59% d'humidité relative.

Le QNH est de 1007 hPa = 29.74 inHg

Vent de 18 kt = 33 km/h avec des rafales à 24 kt = 44 km/h, orienté à 260°.

Nuages : Quelques nuages à 1800 ft = 550 mètres. Nuages épars à 4200 ft = 1280 mètres. Couverture nuageuse fragmentée à 25000 ft = 7620 mètres.

RMK SC1SC2CS4 HALO PRESRR SLP075

TAF de l'aéroport Quebec Jean Lesage Intl - CYQB

CYQB 102338Z 1100/1124 27012G22KT P6SM FEW015 SCT040 BKN250

CYQB 102338Z 1100/1124 27012G22KT P6SM quelques nuages à 015 nuages épars à 040 couverture nuageuse fragmentée à 250

Aéroport à proximité de Quebec Jean Lesage Intl

Météo générale à 5 jours à LAncienne-Lorette (3.2 km)Aéroport St Georges (93 km)Aéroport Trois Rivieres (110 km)Aéroport Charlesvoix (126 km)Aéroport La Turque (126 km)Aéroport Sherbrooke (152 km)Aéroport Bagotville (174 km)

Vue aérienne de l'aéroport Quebec Jean Lesage Intl

NOTAM de l'aéroport Quebec Jean Lesage Intl

Les NOTAM sont fournis sans aucune garantie de leur actualité. Le pilote est le seul responsable de la vérification de sa validité avant de l'utiliser opérationnellement pour préparer un vol ou l'utiliser lors de sa navigation.

Pas de NOTAM

Sources des données